Time;durP1;ratioP1;P1;durP2;ratioP2;P2;SDS_P1;SDS_P2;PMS_P1;PMS_P2;Temp;Humidity;BMP_temperature;BMP_pressure;BME280_temperature;BME280_humidity;BME280_pressure;Samples;Min_cycle;Max_cycle;Signal;HPM_P1;HPM_P2
2023/12/18 00:00:14;;;;;;;13.15;8.23;;;;;;;0.68;100.00;100037.03;6100511;19;20030;-72
2023/12/18 00:02:15;;;;;;;15.20;9.15;;;;;;;0.69;100.00;100033.22;6100640;19;20006;-72
2023/12/18 00:04:16;;;;;;;11.88;7.78;;;;;;;0.70;100.00;100023.13;6101500;19;20013;-72
2023/12/18 00:06:16;;;;;;;8.93;5.05;;;;;;;0.80;100.00;100021.19;6101983;19;19998;-72
2023/12/18 00:08:16;;;;;;;6.57;4.63;;;;;;;1.09;100.00;100012.41;6094221;19;20265;-72
2023/12/18 00:10:17;;;;;;;5.60;3.45;;;;;;;1.45;100.00;100018.53;6095909;19;20002;-72
2023/12/18 00:12:17;;;;;;;5.80;3.20;;;;;;;1.81;100.00;100016.41;6101621;19;20090;-72
2023/12/18 00:14:17;;;;;;;7.00;3.55;;;;;;;2.04;100.00;100014.88;6101496;19;20006;-72
2023/12/18 00:16:18;;;;;;;3.97;2.88;;;;;;;2.43;100.00;100019.50;6099419;19;19999;-72
2023/12/18 00:18:18;;;;;;;3.60;2.58;;;;;;;2.66;100.00;100012.47;6100114;19;20005;-73
2023/12/18 00:20:18;;;;;;;4.85;2.40;;;;;;;2.93;100.00;100018.19;6096991;19;19998;-72
2023/12/18 00:22:19;;;;;;;3.70;2.40;;;;;;;3.12;100.00;100009.22;6100989;19;20006;-72
2023/12/18 00:24:19;;;;;;;3.70;2.55;;;;;;;3.23;100.00;100008.81;6099724;19;20002;-72
2023/12/18 00:26:20;;;;;;;4.30;2.65;;;;;;;3.42;100.00;100002.56;6097054;19;20010;-72
2023/12/18 00:28:20;;;;;;;3.25;2.13;;;;;;;3.63;100.00;99998.44;6100801;19;20011;-72
2023/12/18 00:30:20;;;;;;;4.88;2.63;;;;;;;3.74;100.00;99999.13;6097496;19;20475;-72
2023/12/18 00:32:21;;;;;;;4.07;2.30;;;;;;;3.76;100.00;99992.22;6100252;19;20459;-72
2023/12/18 00:34:21;;;;;;;4.78;2.33;;;;;;;3.77;100.00;99995.78;6098508;19;20112;-72
2023/12/18 00:36:22;;;;;;;3.42;2.47;;;;;;;3.85;100.00;99986.91;6100215;19;20007;-72
2023/12/18 00:38:22;;;;;;;3.85;1.60;;;;;;;3.98;100.00;99999.03;6099758;19;20269;-72
2023/12/18 00:40:22;;;;;;;3.90;2.05;;;;;;;4.13;100.00;99996.84;6099597;19;20041;-72
2023/12/18 00:42:23;;;;;;;2.63;1.92;;;;;;;4.13;100.00;99985.09;6101771;19;20019;-72
2023/12/18 00:44:23;;;;;;;3.25;1.65;;;;;;;4.09;100.00;99984.88;6098972;19;20015;-72
2023/12/18 00:46:25;;;;;;;2.90;2.00;;;;;;;4.11;100.00;99974.44;6101373;19;20006;-72
2023/12/18 00:48:25;;;;;;;2.35;1.65;;;;;;;4.21;100.00;99979.72;6101105;19;20010;-72
2023/12/18 00:50:26;;;;;;;2.22;1.60;;;;;;;4.18;100.00;99980.34;6088659;19;20329;-72
2023/12/18 00:52:26;;;;;;;2.97;2.05;;;;;;;4.17;100.00;99984.19;6086220;19;20668;-72
2023/12/18 00:54:27;;;;;;;1.88;1.60;;;;;;;4.34;100.00;99983.66;6087763;19;20472;-72
2023/12/18 00:56:27;;;;;;;2.67;1.85;;;;;;;4.43;100.00;99989.25;6086173;19;20007;-72
2023/12/18 00:58:27;;;;;;;2.83;2.00;;;;;;;4.41;100.00;99981.34;6086993;19;20086;-72
2023/12/18 01:00:27;;;;;;;2.33;1.70;;;;;;;4.38;100.00;99975.63;6085611;19;20021;-72
2023/12/18 01:02:28;;;;;;;2.58;2.00;;;;;;;4.53;100.00;99978.09;6086558;19;20070;-72
2023/12/18 01:04:28;;;;;;;2.38;1.65;;;;;;;4.64;100.00;99981.50;6085898;19;20011;-72
2023/12/18 01:06:28;;;;;;;2.63;1.90;;;;;;;4.73;100.00;99982.41;6086012;19;20109;-72
2023/12/18 01:08:29;;;;;;;3.45;2.00;;;;;;;4.72;100.00;99987.09;6085490;19;20006;-72
2023/12/18 01:10:29;;;;;;;3.90;1.95;;;;;;;4.67;100.00;99978.94;6084341;19;20010;-72
2023/12/18 01:12:29;;;;;;;3.08;1.98;;;;;;;4.74;100.00;99973.06;6084567;19;20006;-72
2023/12/18 01:14:30;;;;;;;2.90;2.03;;;;;;;4.74;100.00;99982.09;6086415;19;20006;-72
2023/12/18 01:16:30;;;;;;;3.20;2.05;;;;;;;4.69;100.00;99976.72;6086853;19;20027;-72
2023/12/18 01:18:31;;;;;;;3.70;2.20;;;;;;;4.66;100.00;99974.59;6085814;19;20017;-72
2023/12/18 01:20:31;;;;;;;3.70;2.28;;;;;;;4.69;100.00;99971.22;6086074;19;20003;-72
2023/12/18 01:22:32;;;;;;;2.80;2.30;;;;;;;4.77;100.00;99966.97;6085834;19;20027;-72
2023/12/18 01:24:32;;;;;;;3.92;2.33;;;;;;;4.81;100.00;99969.94;6085469;19;20435;-72
2023/12/18 01:26:36;;;;;;;3.15;2.30;;;;;;;4.89;100.00;99961.81;6086549;19;20043;-72
2023/12/18 01:28:36;;;;;;;4.18;2.45;;;;;;;4.95;100.00;99962.50;6086904;19;20223;-72
2023/12/18 01:30:36;;;;;;;4.68;2.67;;;;;;;4.96;100.00;99953.97;6084774;19;20018;-72
2023/12/18 01:32:37;;;;;;;4.18;2.63;;;;;;;4.99;100.00;99955.31;6090452;19;20494;-72
2023/12/18 01:34:38;;;;;;;5.53;2.45;;;;;;;5.01;100.00;99956.63;6092103;19;20003;-72
2023/12/18 01:36:38;;;;;;;3.25;2.33;;;;;;;5.03;100.00;99951.63;6090864;19;20003;-72
2023/12/18 01:38:39;;;;;;;5.40;3.20;;;;;;;4.93;100.00;99956.53;6091817;19;20486;-72
2023/12/18 01:40:39;;;;;;;4.25;2.40;;;;;;;4.98;100.00;99954.50;6091456;19;20011;-72
2023/12/18 01:42:43;;;;;;;4.63;3.38;;;;;;;4.98;100.00;99962.72;6090757;19;20737;-72
2023/12/18 01:44:43;;;;;;;6.57;3.50;;;;;;;5.02;100.00;99958.25;6091487;19;20006;-72
2023/12/18 01:46:45;;;;;;;5.05;3.00;;;;;;;4.92;100.00;99961.19;6091282;19;20074;-72
2023/12/18 01:48:45;;;;;;;6.60;2.63;;;;;;;4.90;100.00;99952.47;6091268;19;20481;-72
2023/12/18 01:50:46;;;;;;;6.65;2.90;;;;;;;4.88;100.00;99965.69;6100069;19;20019;-72
2023/12/18 01:52:47;;;;;;;4.22;2.63;;;;;;;4.94;100.00;99960.88;6105881;19;20007;-72
2023/12/18 01:54:47;;;;;;;4.20;2.75;;;;;;;5.03;100.00;99959.06;6104495;19;20018;-72
2023/12/18 01:56:51;;;;;;;4.00;2.60;;;;;;;4.99;100.00;99964.34;6105261;19;20016;-72
2023/12/18 01:58:54;;;;;;;4.28;2.65;;;;;;;5.14;100.00;99965.16;6105007;19;20383;-72
2023/12/18 02:00:54;;;;;;;4.75;3.00;;;;;;;5.14;100.00;99957.75;6102068;19;20125;-72
2023/12/18 02:02:54;;;;;;;3.90;2.70;;;;;;;5.10;100.00;99950.41;6104846;19;20014;-72
2023/12/18 02:04:55;;;;;;;3.75;2.72;;;;;;;4.99;100.00;99945.16;6104479;19;20040;-72
2023/12/18 02:07:00;;;;;;;3.70;2.72;;;;;;;4.88;100.00;99948.38;6104995;19;20010;-72
2023/12/18 02:09:02;;;;;;;5.60;3.05;;;;;;;5.01;100.00;99947.59;6105013;19;20079;-72
2023/12/18 02:11:02;;;;;;;3.47;2.28;;;;;;;5.12;100.00;99948.19;6104220;19;20444;-72
2023/12/18 02:13:03;;;;;;;3.22;2.50;;;;;;;5.13;100.00;99936.06;6105492;19;20006;-72
2023/12/18 02:15:04;;;;;;;4.35;2.55;;;;;;;5.11;100.00;99941.06;6104613;19;20344;-72
2023/12/18 02:17:05;;;;;;;4.32;2.83;;;;;;;5.06;100.00;99942.00;6104862;19;20078;-72
2023/12/18 02:19:19;;;;;;;4.70;3.05;;;;;;;4.90;100.00;99932.47;6104666;19;20010;-72
2023/12/18 02:21:21;;;;;;;4.38;2.78;;;;;;;4.89;100.00;99939.06;6103804;19;20344;-72
2023/12/18 02:23:22;;;;;;;4.07;2.72;;;;;;;4.87;100.00;99938.53;6104619;19;20478;-72
2023/12/18 02:25:22;;;;;;;3.63;2.63;;;;;;;4.83;100.00;99935.59;6104052;19;20438;-72
2023/12/18 02:27:23;;;;;;;3.90;2.17;;;;;;;4.81;100.00;99932.34;6104996;19;20052;-72
2023/12/18 02:29:23;;;;;;;3.80;2.60;;;;;;;4.84;100.00;99926.25;6104493;19;20003;-72
2023/12/18 02:31:23;;;;;;;4.68;2.60;;;;;;;4.84;100.00;99926.25;6103195;19;20031;-72
2023/12/18 02:33:24;;;;;;;7.68;3.42;;;;;;;4.75;100.00;99928.09;6104070;19;20009;-72
2023/12/18 02:35:25;;;;;;;5.53;3.33;;;;;;;4.70;100.00;99928.16;6103854;19;20017;-72
2023/12/18 02:37:27;;;;;;;3.70;2.80;;;;;;;4.64;100.00;99924.72;6104021;19;20007;-72
2023/12/18 02:39:27;;;;;;;8.57;3.10;;;;;;;4.63;100.00;99923.09;6104627;19;20014;-72
2023/12/18 02:41:28;;;;;;;8.52;3.30;;;;;;;4.57;100.00;99927.06;6102822;19;20002;-72
2023/12/18 02:43:28;;;;;;;5.78;2.80;;;;;;;4.52;100.00;99924.41;6101783;19;20008;-72
2023/12/18 02:45:28;;;;;;;3.80;2.67;;;;;;;4.46;100.00;99914.63;6103697;19;20504;-72
2023/12/18 02:47:29;;;;;;;7.15;2.85;;;;;;;4.44;100.00;99908.66;6104068;19;20490;-72
2023/12/18 02:49:29;;;;;;;6.20;2.95;;;;;;;4.36;100.00;99904.69;6103294;19;20355;-72
2023/12/18 02:51:29;;;;;;;5.13;2.72;;;;;;;4.28;100.00;99904.56;6102994;19;20021;-72
2023/12/18 02:53:30;;;;;;;4.53;3.13;;;;;;;4.31;100.00;99896.56;6103720;19;20075;-72
2023/12/18 02:55:30;;;;;;;3.60;2.50;;;;;;;4.39;100.00;99904.09;6104249;19;20046;-72
2023/12/18 02:57:30;;;;;;;8.55;2.78;;;;;;;4.31;100.00;99899.31;6103929;19;20018;-72
2023/12/18 02:59:31;;;;;;;5.22;2.75;;;;;;;4.20;100.00;99887.69;6104373;19;20357;-72
2023/12/18 03:01:31;;;;;;;3.92;2.45;;;;;;;4.08;100.00;99909.31;6101595;19;20003;-72
2023/12/18 03:03:31;;;;;;;4.95;2.95;;;;;;;3.95;100.00;99899.09;6102149;19;20019;-72
2023/12/18 03:05:32;;;;;;;5.07;2.80;;;;;;;3.82;100.00;99895.22;6103381;19;19999;-72
2023/12/18 03:07:32;;;;;;;3.50;2.33;;;;;;;3.69;100.00;99893.25;6103758;19;20558;-72
2023/12/18 03:09:32;;;;;;;3.97;2.50;;;;;;;3.54;100.00;99891.53;6103585;19;20013;-72
2023/12/18 03:11:33;;;;;;;5.28;2.63;;;;;;;3.56;100.00;99902.22;6102754;19;20029;-72
2023/12/18 03:13:33;;;;;;;4.38;2.55;;;;;;;3.62;100.00;99904.56;6104126;19;20008;-72
2023/12/18 03:15:33;;;;;;;4.28;2.55;;;;;;;3.73;100.00;99915.38;6102908;19;20455;-72
2023/12/18 03:17:34;;;;;;;3.78;2.80;;;;;;;3.81;100.00;99915.50;6103083;19;20086;-72
2023/12/18 03:19:34;;;;;;;4.50;2.90;;;;;;;3.90;100.00;99900.03;6103545;19;20011;-72
2023/12/18 03:21:34;;;;;;;3.83;2.58;;;;;;;3.88;100.00;99894.00;6102467;19;20003;-72
2023/12/18 03:23:35;;;;;;;4.82;2.80;;;;;;;3.83;100.00;99894.09;6103336;19;20407;-72
2023/12/18 03:25:35;;;;;;;4.95;2.80;;;;;;;3.78;100.00;99907.88;6103570;19;20013;-72
2023/12/18 03:27:35;;;;;;;5.72;3.78;;;;;;;3.81;100.00;99901.81;6103289;19;20033;-72
2023/12/18 03:29:36;;;;;;;5.68;3.05;;;;;;;3.81;100.00;99904.56;6103523;19;20007;-72
2023/12/18 03:31:36;;;;;;;4.85;3.35;;;;;;;3.78;100.00;99896.09;6101594;19;20438;-72
2023/12/18 03:33:37;;;;;;;5.90;3.35;;;;;;;3.83;100.00;99891.38;6102491;19;20003;-72
2023/12/18 03:35:38;;;;;;;6.78;3.35;;;;;;;3.85;100.00;99896.53;6101711;19;20643;-72
2023/12/18 03:37:38;;;;;;;6.18;3.50;;;;;;;3.89;100.00;99900.31;6103319;19;20011;-72
2023/12/18 03:39:38;;;;;;;5.97;3.20;;;;;;;4.02;100.00;99906.94;6102220;19;20109;-72
2023/12/18 03:41:39;;;;;;;3.92;2.80;;;;;;;4.17;100.00;99906.69;6102104;19;20002;-72
2023/12/18 03:43:39;;;;;;;4.70;3.38;;;;;;;4.36;100.00;99901.94;6102550;19;20462;-72
2023/12/18 03:45:39;;;;;;;4.18;2.85;;;;;;;4.36;100.00;99899.19;6102471;19;20010;-72
2023/12/18 03:47:40;;;;;;;5.05;3.22;;;;;;;4.39;100.00;99893.13;6101318;19;20449;-72
2023/12/18 03:49:40;;;;;;;6.70;3.53;;;;;;;4.33;100.00;99899.81;6102642;19;20455;-72
2023/12/18 03:51:41;;;;;;;5.53;3.60;;;;;;;4.31;100.00;99898.50;6101645;19;20006;-72
2023/12/18 03:53:41;;;;;;;6.32;3.60;;;;;;;4.27;100.00;99890.06;6102918;19;20011;-72
2023/12/18 03:55:41;;;;;;;5.30;3.38;;;;;;;4.29;100.00;99903.44;6101441;19;20007;-72
2023/12/18 03:57:42;;;;;;;6.55;3.10;;;;;;;4.37;100.00;99900.81;6103094;19;20074;-72
2023/12/18 03:59:42;;;;;;;5.32;3.22;;;;;;;4.37;100.00;99903.56;6102114;19;20327;-72
2023/12/18 04:01:42;;;;;;;5.97;3.45;;;;;;;4.30;100.00;99896.84;6100741;19;20045;-72
2023/12/18 04:03:43;;;;;;;4.97;3.03;;;;;;;4.23;100.00;99897.28;6101225;19;20116;-72
2023/12/18 04:05:43;;;;;;;4.60;2.65;;;;;;;4.30;100.00;99907.81;6101284;19;19998;-72
2023/12/18 04:07:43;;;;;;;6.45;3.58;;;;;;;4.28;100.00;99908.13;6101339;19;19998;-72
2023/12/18 04:09:44;;;;;;;5.43;3.38;;;;;;;4.26;100.00;99907.63;6101212;19;20007;-72
2023/12/18 04:11:44;;;;;;;5.07;3.10;;;;;;;4.26;100.00;99907.63;6100545;19;20002;-72
2023/12/18 04:13:44;;;;;;;4.32;3.10;;;;;;;4.12;100.00;99904.03;6100904;19;20267;-72
2023/12/18 04:15:45;;;;;;;4.40;2.80;;;;;;;4.09;100.00;99921.88;6100382;19;20002;-72
2023/12/18 04:17:45;;;;;;;4.05;3.10;;;;;;;4.06;100.00;99918.94;6098663;19;20003;-72
2023/12/18 04:19:45;;;;;;;5.28;2.95;;;;;;;4.00;100.00;99917.41;6101375;19;20386;-72
2023/12/18 04:21:47;;;;;;;4.38;3.03;;;;;;;3.85;100.00;99905.56;6099896;19;20007;-72
2023/12/18 04:23:47;;;;;;;4.55;3.22;;;;;;;3.73;100.00;99902.50;6100090;19;20011;-72
2023/12/18 04:25:48;;;;;;;4.18;3.22;;;;;;;3.60;100.00;99905.97;6100509;19;20009;-72
2023/12/18 04:27:48;;;;;;;4.28;3.05;;;;;;;3.55;100.00;99915.06;6100914;19;20014;-72
2023/12/18 04:29:49;;;;;;;5.03;3.55;;;;;;;3.42;100.00;99904.88;6099768;19;20020;-72
2023/12/18 04:31:53;;;;;;;3.75;2.60;;;;;;;3.30;100.00;99910.78;6099636;19;20029;-72
2023/12/18 04:33:53;;;;;;;5.13;2.70;;;;;;;3.23;100.00;99918.56;6101032;19;20014;-72
2023/12/18 04:35:53;;;;;;;5.15;3.42;;;;;;;3.14;100.00;99914.81;6100369;19;20066;-72
2023/12/18 04:37:53;;;;;;;4.88;3.28;;;;;;;3.01;100.00;99907.34;6100468;19;20338;-72
2023/12/18 04:39:54;;;;;;;6.53;3.90;;;;;;;2.91;100.00;99910.22;6101250;19;20021;-72
2023/12/18 04:41:55;;;;;;;22.10;9.18;;;;;;;2.74;100.00;99908.78;6101069;19;20014;-72
2023/12/18 04:43:55;;;;;;;11.63;6.05;;;;;;;2.63;100.00;99920.91;6101078;19;20006;-72
2023/12/18 04:45:58;;;;;;;7.30;4.18;;;;;;;2.54;100.00;99909.00;6100289;19;20024;-72
2023/12/18 04:47:59;;;;;;;9.75;4.03;;;;;;;2.51;100.00;99907.66;6101372;19;20028;-72
2023/12/18 04:49:59;;;;;;;5.35;3.38;;;;;;;2.49;100.00;99909.06;6087896;19;20341;-72
2023/12/18 04:51:59;;;;;;;7.78;4.13;;;;;;;2.49;100.00;99896.22;6100049;19;20476;-72
2023/12/18 04:54:00;;;;;;;4.75;3.13;;;;;;;2.63;100.00;99906.44;6100736;19;20007;-72
2023/12/18 04:56:00;;;;;;;4.53;3.38;;;;;;;2.77;100.00;99900.00;6100467;19;20003;-72
2023/12/18 04:58:01;;;;;;;6.35;3.42;;;;;;;3.08;100.00;99891.41;6098912;19;20011;-72
2023/12/18 05:00:02;;;;;;;5.47;3.47;;;;;;;3.29;100.00;99879.06;6099746;19;20002;-72
2023/12/18 05:02:02;;;;;;;5.97;3.42;;;;;;;3.58;100.00;99886.31;6098176;19;20018;-72
2023/12/18 05:04:03;;;;;;;6.93;3.60;;;;;;;3.85;100.00;99874.63;6099562;19;20122;-72
2023/12/18 05:06:04;;;;;;;5.88;4.20;;;;;;;4.05;100.00;99870.72;6097693;19;20007;-72
2023/12/18 05:08:04;;;;;;;5.45;3.30;;;;;;;4.22;100.00;99873.72;6099624;19;20006;-72
2023/12/18 05:10:05;;;;;;;6.20;3.65;;;;;;;4.25;100.00;99877.78;6098910;19;20014;-72
2023/12/18 05:12:06;;;;;;;6.25;3.17;;;;;;;4.22;100.00;99880.03;6099043;19;20014;-72
2023/12/18 05:14:06;;;;;;;4.82;3.30;;;;;;;4.34;100.00;99892.41;6095390;19;20017;-72
2023/12/18 05:16:07;;;;;;;5.32;3.53;;;;;;;4.28;100.00;99882.66;6098457;19;20512;-72
2023/12/18 05:18:07;;;;;;;5.15;3.53;;;;;;;4.39;100.00;99884.09;6098138;19;20010;-72
2023/12/18 05:20:09;;;;;;;7.43;3.50;;;;;;;4.35;100.00;99883.88;6097393;19;20212;-72
2023/12/18 05:22:09;;;;;;;5.15;2.83;;;;;;;4.43;100.00;99885.91;6098331;19;20003;-72
2023/12/18 05:24:09;;;;;;;5.78;3.75;;;;;;;4.57;100.00;99885.13;6098586;19;20006;-72
2023/12/18 05:26:10;;;;;;;4.28;3.20;;;;;;;4.63;100.00;99887.44;6098549;19;20003;-72
2023/12/18 05:28:10;;;;;;;5.07;2.95;;;;;;;4.58;100.00;99886.75;6097950;19;20010;-72
2023/12/18 05:30:11;;;;;;;4.22;2.83;;;;;;;4.57;100.00;99887.88;6097504;19;20014;-73
2023/12/18 05:32:11;;;;;;;12.43;6.97;;;;;;;4.50;100.00;99886.34;6099084;19;20014;-72
2023/12/18 05:34:11;;;;;;;6.65;4.28;;;;;;;4.49;100.00;99895.69;6100309;19;20006;-72
2023/12/18 05:36:12;;;;;;;6.70;4.63;;;;;;;4.40;100.00;99897.50;6097920;19;20006;-72
2023/12/18 05:38:12;;;;;;;6.18;4.30;;;;;;;4.25;100.00;99884.06;6099454;19;20033;-72
2023/12/18 05:40:12;;;;;;;6.60;4.30;;;;;;;4.15;100.00;99885.06;6099039;19;19991;-72
2023/12/18 05:42:15;;;;;;;10.90;4.10;;;;;;;4.07;100.00;99866.59;6099717;19;20145;-72
2023/12/18 05:44:15;;;;;;;6.00;3.75;;;;;;;3.98;100.00;99871.16;6099047;19;20011;-72
2023/12/18 05:46:16;;;;;;;5.55;3.85;;;;;;;3.88;100.00;99863.06;6096684;19;20401;-72
2023/12/18 05:48:16;;;;;;;5.40;3.80;;;;;;;3.76;100.00;99869.03;6099161;19;20342;-72
2023/12/18 05:50:16;;;;;;;6.18;3.95;;;;;;;3.66;100.00;99855.53;6086330;19;20413;-72
2023/12/18 05:52:18;;;;;;;6.05;3.78;;;;;;;3.58;100.00;99850.72;6085665;19;19999;-72
2023/12/18 05:54:18;;;;;;;5.80;3.53;;;;;;;3.47;100.00;99851.97;6085059;19;20006;-72
2023/12/18 05:56:18;;;;;;;5.57;4.00;;;;;;;3.46;100.00;99853.09;6084629;19;20009;-72
2023/12/18 05:58:19;;;;;;;6.95;3.88;;;;;;;3.39;100.00;99861.66;6084080;19;20073;-72
2023/12/18 06:00:19;;;;;;;4.22;3.17;;;;;;;3.30;100.00;99850.59;6082395;19;20374;-72
2023/12/18 06:02:19;;;;;;;6.03;3.90;;;;;;;3.26;100.00;99857.78;6084224;19;20313;-72
2023/12/18 06:04:19;;;;;;;4.40;3.08;;;;;;;3.24;100.00;99856.47;6085699;19;20005;-72
2023/12/18 06:06:20;;;;;;;4.72;3.50;;;;;;;3.20;100.00;99853.47;6083078;19;20078;-73
2023/12/18 06:08:20;;;;;;;7.28;3.65;;;;;;;3.15;100.00;99858.22;6085413;19;20019;-72
2023/12/18 06:10:21;;;;;;;8.48;5.18;;;;;;;3.11;100.00;99866.19;6083377;19;20030;-72
2023/12/18 06:12:21;;;;;;;13.43;7.28;;;;;;;3.08;100.00;99869.53;6084183;19;20474;-72
2023/12/18 06:14:21;;;;;;;8.98;5.57;;;;;;;3.09;100.00;99862.94;6084728;19;20014;-72
2023/12/18 06:16:22;;;;;;;7.30;5.15;;;;;;;3.10;100.00;99861.84;6083746;19;20377;-72
2023/12/18 06:18:22;;;;;;;5.30;3.35;;;;;;;3.17;100.00;99869.69;6088885;19;20002;-72
2023/12/18 06:20:22;;;;;;;4.90;3.30;;;;;;;3.21;100.00;99876.19;6089301;19;20003;-72
2023/12/18 06:22:24;;;;;;;4.28;2.78;;;;;;;3.33;100.00;99882.84;6090970;19;20099;-72
2023/12/18 06:24:24;;;;;;;3.95;2.50;;;;;;;3.55;100.00;99871.28;6088454;19;20009;-72
2023/12/18 06:26:24;;;;;;;4.53;2.30;;;;;;;3.70;100.00;99878.44;6089279;19;20479;-72
2023/12/18 06:28:25;;;;;;;4.32;2.38;;;;;;;3.86;100.00;99879.00;6090448;19;20007;-72
2023/12/18 06:30:25;;;;;;;3.60;2.15;;;;;;;3.93;100.00;99880.25;6089422;19;20034;-72
2023/12/18 06:32:25;;;;;;;4.40;2.88;;;;;;;3.90;100.00;99880.84;6089737;19;20018;-72
2023/12/18 06:34:26;;;;;;;4.28;2.35;;;;;;;3.82;100.00;99870.59;6092021;19;20019;-72
2023/12/18 06:36:26;;;;;;;2.38;1.98;;;;;;;3.68;100.00;99853.28;6083010;19;20011;-72
2023/12/18 06:38:27;;;;;;;5.85;2.10;;;;;;;3.81;100.00;99859.94;6083181;19;20726;-72
2023/12/18 06:40:28;;;;;;;3.13;2.40;;;;;;;3.93;100.00;99865.75;6084166;19;20387;-72
2023/12/18 06:42:28;;;;;;;3.90;2.40;;;;;;;4.05;100.00;99868.81;6087450;19;20074;-72
2023/12/18 06:44:28;;;;;;;3.63;2.47;;;;;;;4.03;100.00;99867.47;6083646;19;20325;-72
2023/12/18 06:46:29;;;;;;;4.18;1.80;;;;;;;4.00;100.00;99860.69;6084941;19;20009;-72
2023/12/18 06:48:29;;;;;;;3.17;2.60;;;;;;;4.08;100.00;99867.41;6086448;19;20006;-72
2023/12/18 06:50:31;;;;;;;3.78;2.60;;;;;;;4.17;100.00;99866.41;6094505;19;20057;-72
2023/12/18 06:52:31;;;;;;;4.85;2.03;;;;;;;4.20;100.00;99876.75;6101867;19;20081;-72
2023/12/18 06:54:33;;;;;;;3.15;2.03;;;;;;;4.16;100.00;99878.47;6103378;19;20023;-72
2023/12/18 06:56:33;;;;;;;3.97;2.47;;;;;;;4.09;100.00;99872.56;6099332;19;20014;-72
2023/12/18 06:58:34;;;;;;;3.65;2.63;;;;;;;4.12;100.00;99873.88;6098477;19;20010;-72
2023/12/18 07:00:34;;;;;;;4.00;2.92;;;;;;;4.17;100.00;99873.81;6097161;19;20121;-72
2023/12/18 07:02:34;;;;;;;3.85;2.65;;;;;;;4.22;100.00;99871.00;6099416;19;20016;-72
2023/12/18 07:04:35;;;;;;;5.40;2.33;;;;;;;4.15;100.00;99874.13;6100075;19;20014;-72
2023/12/18 07:06:35;;;;;;;3.40;2.45;;;;;;;4.23;100.00;99878.09;6101630;19;20011;-72
2023/12/18 07:08:35;;;;;;;3.83;2.45;;;;;;;4.26;100.00;99874.75;6102992;19;20014;-72
2023/12/18 07:10:36;;;;;;;4.88;3.30;;;;;;;4.38;100.00;99888.75;6099676;19;19998;-72
2023/12/18 07:12:36;;;;;;;4.40;3.00;;;;;;;4.36;100.00;99890.16;6099436;19;20324;-72
2023/12/18 07:14:38;;;;;;;5.40;3.00;;;;;;;4.31;100.00;99890.28;6101948;19;20362;-72
2023/12/18 07:16:38;;;;;;;10.35;6.00;;;;;;;4.51;100.00;99895.38;6100300;19;20036;-72
2023/12/18 07:18:39;;;;;;;8.38;5.03;;;;;;;4.56;100.00;99895.28;6102029;19;20006;-72
2023/12/18 07:20:43;;;;;;;3.65;2.47;;;;;;;4.57;100.00;99890.63;6100553;19;20014;-72
2023/12/18 07:22:44;;;;;;;4.75;2.60;;;;;;;4.47;100.00;99892.44;6102430;19;20254;-72
2023/12/18 07:24:44;;;;;;;5.95;3.28;;;;;;;4.49;100.00;99897.59;6101180;19;20011;-72
2023/12/18 07:26:44;;;;;;;3.30;2.55;;;;;;;4.40;100.00;99893.94;6101758;19;20581;-72
2023/12/18 07:28:45;;;;;;;4.05;2.50;;;;;;;4.28;100.00;99894.41;6102721;19;20014;-72
2023/12/18 07:30:45;;;;;;;7.18;2.58;;;;;;;4.19;100.00;99896.22;6101449;19;20011;-72
2023/12/18 07:32:46;;;;;;;6.25;2.40;;;;;;;4.10;100.00;99903.50;6103567;19;20308;-72
2023/12/18 07:34:46;;;;;;;4.38;2.45;;;;;;;4.01;100.00;99897.09;6102817;19;20010;-72
2023/12/18 07:36:46;;;;;;;3.03;2.22;;;;;;;3.88;100.00;99902.22;6102947;19;20002;-72
2023/12/18 07:38:47;;;;;;;3.25;2.63;;;;;;;3.82;100.00;99900.69;6102890;19;20011;-72
2023/12/18 07:40:48;;;;;;;4.93;2.65;;;;;;;3.73;100.00;99899.75;6101212;19;20464;-72
2023/12/18 07:42:48;;;;;;;5.35;2.83;;;;;;;3.61;100.00;99913.06;6102865;19;19999;-72
2023/12/18 07:44:48;;;;;;;4.40;3.10;;;;;;;3.46;100.00;99916.03;6102391;19;20010;-72
2023/12/18 07:46:51;;;;;;;11.15;5.65;;;;;;;3.31;100.00;99912.44;6102905;19;20006;-72
2023/12/18 07:48:51;;;;;;;63.20;20.58;;;;;;;3.16;100.00;99906.34;6101934;19;20002;-72
2023/12/18 07:50:52;;;;;;;48.00;16.13;;;;;;;3.02;100.00;99903.50;6102362;19;20006;-72
2023/12/18 07:52:52;;;;;;;23.92;8.93;;;;;;;2.88;100.00;99908.06;6102919;19;20070;-72
2023/12/18 07:54:52;;;;;;;19.65;8.15;;;;;;;2.73;100.00;99898.13;6101768;19;20036;-72
2023/12/18 07:56:53;;;;;;;16.92;7.72;;;;;;;2.69;100.00;99908.84;6102887;19;20010;-72
2023/12/18 07:58:53;;;;;;;9.93;4.90;;;;;;;2.58;100.00;99903.78;6102261;19;20006;-72
2023/12/18 08:00:54;;;;;;;8.93;5.22;;;;;;;2.51;100.00;99898.66;6101522;19;20659;-72
2023/12/18 08:02:54;;;;;;;10.70;6.05;;;;;;;2.45;100.00;99889.69;6102634;19;20007;-72
2023/12/18 08:04:54;;;;;;;8.40;4.53;;;;;;;2.38;100.00;99891.97;6101647;19;20315;-72
2023/12/18 08:06:55;;;;;;;8.52;4.78;;;;;;;2.42;100.00;99905.88;6101614;19;20468;-72
2023/12/18 08:08:55;;;;;;;7.88;4.40;;;;;;;2.31;100.00;99899.69;6101725;19;20015;-72
2023/12/18 08:10:55;;;;;;;8.43;4.15;;;;;;;2.30;100.00;99899.97;6102359;19;20367;-72
2023/12/18 08:12:56;;;;;;;7.03;3.92;;;;;;;2.32;100.00;99893.13;6101957;19;20006;-72
2023/12/18 08:14:56;;;;;;;7.70;4.28;;;;;;;2.30;100.00;99900.78;6101412;19;20041;-72
2023/12/18 08:16:56;;;;;;;5.95;3.88;;;;;;;2.21;100.00;99892.41;6102974;19;20007;-72
2023/12/18 08:18:58;;;;;;;26.25;10.85;;;;;;;2.14;100.00;99902.03;6101748;19;20476;-72
2023/12/18 08:20:58;;;;;;;30.95;12.35;;;;;;;2.01;100.00;99892.63;6101227;19;20401;-72
2023/12/18 08:22:59;;;;;;;23.27;9.70;;;;;;;2.03;100.00;99903.25;6101390;19;19998;-72
2023/12/18 08:25:00;;;;;;;21.75;7.90;;;;;;;2.07;100.00;99891.47;6100735;19;20006;-72
2023/12/18 08:27:02;;;;;;;17.15;8.32;;;;;;;2.03;100.00;99890.41;6101921;19;20003;-72
2023/12/18 08:29:04;;;;;;;22.15;9.10;;;;;;;2.10;100.00;99893.63;6102283;19;20073;-72
2023/12/18 08:31:04;;;;;;;34.05;14.10;;;;;;;2.08;100.00;99893.09;6100930;19;20366;-72
2023/12/18 08:33:05;;;;;;;22.45;10.48;;;;;;;2.07;100.00;99893.34;6101930;19;20557;-72
2023/12/18 08:35:08;;;;;;;13.60;7.22;;;;;;;1.96;100.00;99895.38;6101391;19;20858;-72
2023/12/18 08:37:08;;;;;;;9.80;5.75;;;;;;;1.92;100.00;99888.88;6100953;19;20010;-72
2023/12/18 08:39:10;;;;;;;8.77;5.85;;;;;;;1.91;100.00;99887.25;6102068;19;20498;-72
2023/12/18 08:41:10;;;;;;;11.85;6.55;;;;;;;1.79;100.00;99898.53;6097952;19;20471;-72
2023/12/18 08:43:10;;;;;;;15.80;8.38;;;;;;;1.80;100.00;99889.22;6101203;19;20007;-72
2023/12/18 08:45:11;;;;;;;12.70;6.05;;;;;;;1.85;100.00;99888.38;6101137;19;20039;-72
2023/12/18 08:47:11;;;;;;;6.60;2.92;;;;;;;2.19;100.00;99885.63;6101734;19;20436;-72
2023/12/18 08:49:12;;;;;;;3.75;2.40;;;;;;;2.68;100.00;99896.28;6101084;19;20028;-72
2023/12/18 08:51:12;;;;;;;4.10;2.90;;;;;;;3.18;100.00;99888.53;6099838;19;20010;-72
2023/12/18 08:53:13;;;;;;;3.83;2.28;;;;;;;3.44;100.00;99886.22;6101190;19;20094;-72
2023/12/18 08:55:13;;;;;;;3.58;2.10;;;;;;;3.81;100.00;99879.91;6100400;19;20470;-72
2023/12/18 08:57:13;;;;;;;4.03;2.22;;;;;;;4.18;100.00;99872.69;6101249;19;20376;-72
2023/12/18 08:59:14;;;;;;;4.90;2.72;;;;;;;4.51;100.00;99878.94;6101365;19;20017;-72
2023/12/18 09:01:14;;;;;;;4.35;2.20;;;;;;;4.83;100.00;99878.00;6099842;19;20454;-72
2023/12/18 09:03:14;;;;;;;4.32;2.78;;;;;;;5.09;100.00;99886.50;6101532;19;20023;-72
2023/12/18 09:05:15;;;;;;;6.72;3.13;;;;;;;5.25;100.00;99889.72;6100431;19;20002;-72
2023/12/18 09:07:15;;;;;;;4.78;2.80;;;;;;;5.34;100.00;99883.19;6100849;19;20014;-72
2023/12/18 09:09:15;;;;;;;5.38;3.55;;;;;;;5.30;100.00;99889.63;6101730;19;20041;-72
2023/12/18 09:11:16;;;;;;;5.22;2.97;;;;;;;5.36;100.00;99893.88;6099007;19;20002;-72
2023/12/18 09:13:16;;;;;;;6.93;3.28;;;;;;;5.38;100.00;99899.03;6101235;19;20007;-72
2023/12/18 09:15:17;;;;;;;8.95;4.00;;;;;;;5.42;100.00;99906.34;6100540;19;20025;-72
2023/12/18 09:17:17;;;;;;;5.32;3.70;;;;;;;5.39;100.00;99893.25;6100583;19;19999;-72
2023/12/18 09:19:17;;;;;;;6.38;3.45;;;;;;;5.30;100.00;99892.38;6101285;19;20006;-72
2023/12/18 09:21:18;;;;;;;7.75;3.83;;;;;;;5.20;100.00;99887.91;6098308;19;19999;-72
2023/12/18 09:23:18;;;;;;;9.65;4.75;;;;;;;5.28;100.00;99889.09;6100252;19;20010;-72
2023/12/18 09:25:18;;;;;;;12.15;5.72;;;;;;;5.36;100.00;99888.38;6100650;19;20062;-72